Terminal Aerodrome Forecast
Issued by NWS

Home | Current Version | Previous Version | Text Only | Print | Product List | Glossary On
Versions: 1 2 3 4 5 6 7 8 9 10 11 12 13 14 15 16 17 18 19 20 21
693
FTUS44 KBMX 232330
TAFTOI
TAF
KTOI 232330Z 2400/2424 31005KT P6SM SKC
     FM240200 31003KT P6SM SKC
     FM241200 26005KT P6SM SKC
     FM241500 30012G22KT P6SM SKC=

USA.gov is the U.S. government's official web portal to all federal, state and local government web resources and services.